createdAt,value
2018-12-17T00:00:20.729Z,96025.97
2018-12-17T00:02:50.927Z,96032.98
2018-12-17T00:05:20.949Z,96031.11
2018-12-17T00:07:51.052Z,96031.89
2018-12-17T00:10:21.076Z,96031.52
2018-12-17T00:12:51.525Z,96028.22
2018-12-17T00:15:22.526Z,96028.03
2018-12-17T00:17:52.774Z,96029.22
2018-12-17T00:20:22.874Z,96023.77
2018-12-17T00:22:52.924Z,96023.26
2018-12-17T00:25:22.960Z,96024.57
2018-12-17T00:27:53.326Z,96024.68
2018-12-17T00:30:23.464Z,96030.91
2018-12-17T00:32:53.597Z,96025.98
2018-12-17T00:35:23.676Z,96021.11
2018-12-17T00:37:53.819Z,96021.38
2018-12-17T00:40:23.962Z,96021.22
2018-12-17T00:42:54.035Z,96025.53
2018-12-17T00:45:25.276Z,96026.16
2018-12-17T00:47:55.989Z,96025.16
2018-12-17T00:50:26.590Z,96023.59
2018-12-17T00:52:56.844Z,96029.54
2018-12-17T00:55:27.188Z,96034.98
2018-12-17T00:57:57.222Z,96035.19
2018-12-17T01:00:27.325Z,96045.69
2018-12-17T01:02:57.464Z,96049.45
2018-12-17T01:05:27.728Z,96049.45
2018-12-17T01:07:57.745Z,96054.41
2018-12-17T01:10:28.031Z,96056.05
2018-12-17T01:12:58.229Z,96057.35
2018-12-17T01:15:28.305Z,96055.95
2018-12-17T01:17:58.581Z,96050.87
2018-12-17T01:20:28.702Z,96051.72
2018-12-17T01:22:58.825Z,96055.34
2018-12-17T01:25:28.832Z,96056.85
2018-12-17T01:27:59.148Z,96055.91
2018-12-17T01:30:29.337Z,96061.61
2018-12-17T01:32:59.540Z,96059.83
2018-12-17T01:35:33.752Z,96057.27
2018-12-17T01:38:05.165Z,96051.83
2018-12-17T01:40:35.460Z,96054.38
2018-12-17T01:43:05.770Z,96051.88
2018-12-17T01:45:35.920Z,96053.55
2018-12-17T01:48:05.936Z,96054.86
2018-12-17T01:50:36.020Z,96047.70
2018-12-17T01:53:06.224Z,96049.36
2018-12-17T01:55:36.388Z,96049.89
2018-12-17T01:58:06.412Z,96054.13
2018-12-17T02:00:36.462Z,96056.38
2018-12-17T02:03:06.491Z,96056.38
2018-12-17T02:05:36.509Z,96059.81
2018-12-17T02:08:07.064Z,96055.69
2018-12-17T02:10:37.089Z,96059.08
2018-12-17T02:13:07.590Z,96055.74
2018-12-17T02:15:37.896Z,96047.38
2018-12-17T02:18:08.222Z,96063.74
2018-12-17T02:20:38.565Z,96059.92
2018-12-17T02:23:08.871Z,96059.09
2018-12-17T02:25:39.198Z,96060.41
2018-12-17T02:28:09.210Z,96064.27
2018-12-17T02:30:39.437Z,96060.69
2018-12-17T02:33:09.500Z,96062.01
2018-12-17T02:35:39.577Z,96055.73
2018-12-17T02:38:09.715Z,96050.39
2018-12-17T02:40:39.697Z,96051.22
2018-12-17T02:43:10.026Z,96048.25
2018-12-17T02:45:40.300Z,96058.70
2018-12-17T02:48:10.309Z,96062.52
2018-12-17T02:50:40.664Z,96065.58
2018-12-17T02:53:10.684Z,96074.05
2018-12-17T02:55:41.013Z,96069.59
2018-12-17T02:58:11.176Z,96078.48
2018-12-17T03:00:41.430Z,96079.03
2018-12-17T03:03:11.407Z,96084.37
2018-12-17T03:05:41.423Z,96083.78
2018-12-17T03:08:11.770Z,96089.20
2018-12-17T03:10:42.049Z,96089.71
2018-12-17T03:13:12.036Z,96086.74
2018-12-17T03:15:42.278Z,96092.09
2018-12-17T03:18:12.316Z,96099.97
2018-12-17T03:20:42.666Z,96093.30
2018-12-17T03:23:12.751Z,96096.81
2018-12-17T03:25:42.803Z,96093.94
2018-12-17T03:28:13.221Z,96100.98
2018-12-17T03:30:43.248Z,96103.50
2018-12-17T03:33:13.301Z,96092.55
2018-12-17T03:35:43.512Z,96100.63
2018-12-17T03:38:13.528Z,96104.84
2018-12-17T03:40:43.589Z,96100.81
2018-12-17T03:43:13.616Z,96110.42
2018-12-17T03:45:44.172Z,96109.13
2018-12-17T03:48:14.388Z,96110.79
2018-12-17T03:50:44.500Z,96106.86
2018-12-17T03:53:14.632Z,96111.36
2018-12-17T03:55:44.904Z,96110.52
2018-12-17T03:58:14.896Z,96108.02
2018-12-17T04:00:45.019Z,96117.11
2018-12-17T04:03:15.137Z,96116.24
2018-12-17T04:05:45.266Z,96117.07
2018-12-17T04:08:15.281Z,96122.36
2018-12-17T04:10:45.362Z,96126.45
2018-12-17T04:13:15.484Z,96132.62
2018-12-17T04:15:45.894Z,96133.46
2018-12-17T04:18:15.931Z,96138.48
2018-12-17T04:20:45.948Z,96142.66
2018-12-17T04:23:16.445Z,96139.28
2018-12-17T04:25:46.516Z,96148.47
2018-12-17T04:28:16.553Z,96153.34
2018-12-17T04:30:46.809Z,96151.95
2018-12-17T04:33:16.853Z,96154.28
2018-12-17T04:35:46.902Z,96153.72
2018-12-17T04:38:17.132Z,96148.66
2018-12-17T04:40:47.442Z,96155.72
2018-12-17T04:43:17.487Z,96160.31
2018-12-17T04:45:47.702Z,96158.13
2018-12-17T04:48:18.584Z,96163.52
2018-12-17T04:50:48.608Z,96161.34
2018-12-17T04:53:18.627Z,96163.28
2018-12-17T04:55:48.956Z,96161.97
2018-12-17T04:58:19.305Z,96167.59
2018-12-17T05:00:49.302Z,96171.36
2018-12-17T05:03:19.361Z,96178.48
2018-12-17T05:05:49.389Z,96172.25
2018-12-17T05:08:19.676Z,96179.73
2018-12-17T05:10:49.695Z,96178.48
2018-12-17T05:13:19.924Z,96187.63
2018-12-17T05:15:50.052Z,96189.67
2018-12-17T05:18:20.363Z,96191.70
2018-12-17T05:20:50.574Z,96190.78
2018-12-17T05:23:21.199Z,96196.97
2018-12-17T05:25:51.228Z,96193.56
2018-12-17T05:28:21.262Z,96195.94
2018-12-17T05:30:51.288Z,96199.70
2018-12-17T05:33:21.743Z,96196.72
2018-12-17T05:35:51.738Z,96201.31
2018-12-17T05:38:21.729Z,96198.39
2018-12-17T05:40:52.400Z,96202.52
2018-12-17T05:43:22.597Z,96204.11
2018-12-17T05:45:53.171Z,96209.02
2018-12-17T05:48:23.246Z,96206.89
2018-12-17T05:50:53.423Z,96207.72
2018-12-17T05:53:23.597Z,96209.81
2018-12-17T05:55:53.664Z,96205.21
2018-12-17T05:58:23.718Z,96209.36
2018-12-17T06:00:53.793Z,96212.32
2018-12-17T06:03:24.280Z,96209.29
2018-12-17T06:05:54.543Z,96209.66
2018-12-17T06:08:24.619Z,96217.58
2018-12-17T06:10:54.642Z,96222.17
2018-12-17T06:13:24.737Z,96221.70
2018-12-17T06:15:55.187Z,96224.59
2018-12-17T06:18:25.361Z,96223.92
2018-12-17T06:20:55.940Z,96231.09
2018-12-17T06:23:26.069Z,96234.66
2018-12-17T06:25:56.877Z,96242.97
2018-12-17T06:28:27.283Z,96247.19
2018-12-17T06:30:57.312Z,96248.59
2018-12-17T06:33:27.641Z,96254.23
2018-12-17T06:35:57.805Z,96261.72
2018-12-17T06:38:27.830Z,96264.66
2018-12-17T06:40:58.032Z,96265.34
2018-12-17T06:43:28.038Z,96273.45
2018-12-17T06:45:58.101Z,96275.02
2018-12-17T06:48:28.126Z,96276.88
2018-12-17T06:50:58.194Z,96276.19
2018-12-17T06:53:28.184Z,96282.83
2018-12-17T06:55:58.643Z,96282.04
2018-12-17T06:58:29.085Z,96284.09
2018-12-17T07:00:59.309Z,96284.31
2018-12-17T07:03:29.315Z,96286.97
2018-12-17T07:06:00.572Z,96290.69
2018-12-17T07:08:30.684Z,96290.86
2018-12-17T07:11:00.772Z,96300.12
2018-12-17T07:13:30.916Z,96289.97
2018-12-17T07:16:01.089Z,96304.12
2018-12-17T07:18:31.201Z,96298.42
2018-12-17T07:21:01.216Z,96303.79
2018-12-17T07:23:31.235Z,96306.77
2018-12-17T07:26:01.424Z,96317.11
2018-12-17T07:28:31.785Z,96315.31
2018-12-17T07:31:01.859Z,96316.73
2018-12-17T07:33:32.508Z,96323.80
2018-12-17T07:36:02.742Z,96329.42
2018-12-17T07:38:33.059Z,96339.10
2018-12-17T07:41:03.233Z,96334.03
2018-12-17T07:43:33.236Z,96334.88
2018-12-17T07:46:03.460Z,96334.57
2018-12-17T07:48:33.792Z,96334.36
2018-12-17T07:51:03.809Z,96343.73
2018-12-17T07:53:33.844Z,96337.72
2018-12-17T07:56:03.895Z,96346.98
2018-12-17T07:58:34.223Z,96356.33
2018-12-17T08:01:04.721Z,96360.05
2018-12-17T08:03:34.768Z,96356.12
2018-12-17T08:06:04.806Z,96356.33
2018-12-17T08:08:35.505Z,96360.90
2018-12-17T08:11:05.894Z,96362.56
2018-12-17T08:13:36.176Z,96367.92
2018-12-17T08:16:06.227Z,96369.97
2018-12-17T08:18:36.484Z,96378.67
2018-12-17T08:21:06.797Z,96380.23
2018-12-17T08:23:37.099Z,96387.69
2018-12-17T08:26:07.328Z,96397.11
2018-12-17T08:28:38.404Z,96397.01
2018-12-17T08:31:09.091Z,96402.67
2018-12-17T08:33:39.263Z,96405.98
2018-12-17T08:36:09.257Z,96415.16
2018-12-17T08:38:39.969Z,96414.52
2018-12-17T08:41:10.489Z,96420.86
2018-12-17T08:43:40.506Z,96429.62
2018-12-17T08:46:10.677Z,96432.45
2018-12-17T08:48:40.873Z,96425.64
2018-12-17T08:51:11.180Z,96433.92
2018-12-17T08:53:41.245Z,96436.36
2018-12-17T08:56:11.358Z,96439.79
2018-12-17T08:58:41.391Z,96450.80
2018-12-17T09:01:11.408Z,96451.85
2018-12-17T09:03:41.427Z,96454.97
2018-12-17T09:06:11.568Z,96457.28
2018-12-17T09:08:42.065Z,96466.78
2018-12-17T09:11:12.211Z,96468.03
2018-12-17T09:13:42.217Z,96462.30
2018-12-17T09:16:13.091Z,96464.30
2018-12-17T09:18:43.091Z,96462.04
2018-12-17T09:21:13.139Z,96463.04
2018-12-17T09:23:43.223Z,96459.20
2018-12-17T09:26:13.257Z,96458.42
2018-12-17T09:28:43.284Z,96464.73
2018-12-17T09:31:13.513Z,96459.81
2018-12-17T09:33:43.597Z,96455.68
2018-12-17T09:36:13.624Z,96449.15
2018-12-17T09:38:43.781Z,96449.92
2018-12-17T09:41:13.809Z,96445.66
2018-12-17T09:43:43.854Z,96437.86
2018-12-17T09:46:13.856Z,96438.76
2018-12-17T09:48:44.899Z,96440.05
2018-12-17T09:51:19.475Z,96437.55
2018-12-17T09:53:48.034Z,96441.25
2018-12-17T09:56:18.327Z,96435.85
2018-12-17T09:58:48.980Z,96437.46
2018-12-17T10:01:19.181Z,96437.02
2018-12-17T10:03:49.324Z,96439.95
2018-12-17T10:06:19.448Z,96439.34
2018-12-17T10:08:49.816Z,96434.39
2018-12-17T10:11:20.724Z,96437.31
2018-12-17T10:13:51.089Z,96427.48
2018-12-17T10:16:21.100Z,96440.36
2018-12-17T10:18:51.151Z,96439.24
2018-12-17T10:21:21.420Z,96446.20
2018-12-17T10:23:51.545Z,96436.92
2018-12-17T10:26:21.740Z,96444.65
2018-12-17T10:28:52.070Z,96446.90
2018-12-17T10:31:22.326Z,96450.44
2018-12-17T10:33:52.578Z,96446.02
2018-12-17T10:36:22.628Z,96444.81
2018-12-17T10:38:52.681Z,96447.67
2018-12-17T10:41:22.750Z,96449.64
2018-12-17T10:43:52.813Z,96449.71
2018-12-17T10:46:22.905Z,96454.77
2018-12-17T10:48:52.900Z,96451.27
2018-12-17T10:51:22.989Z,96450.57
2018-12-17T10:53:53.027Z,96455.49
2018-12-17T10:56:23.372Z,96450.98
2018-12-17T10:58:53.399Z,96460.33
2018-12-17T11:01:28.765Z,96463.89
2018-12-17T11:04:04.552Z,96461.66
2018-12-17T11:06:35.819Z,96474.48
2018-12-17T11:09:09.365Z,96476.09
2018-12-17T11:11:39.641Z,96473.36
2018-12-17T11:14:09.672Z,96482.47
2018-12-17T11:16:39.863Z,96484.32
2018-12-17T11:19:09.934Z,96481.88
2018-12-17T11:21:39.933Z,96485.98
2018-12-17T11:24:10.281Z,96493.59
2018-12-17T11:26:41.061Z,96486.81
2018-12-17T11:29:11.255Z,96483.08
2018-12-17T11:31:41.301Z,96484.92
2018-12-17T11:34:11.330Z,96485.69
2018-12-17T11:36:41.415Z,96488.98
2018-12-17T11:39:11.556Z,96492.88
2018-12-17T11:41:42.443Z,96494.86
2018-12-17T11:44:12.578Z,96504.69
2018-12-17T11:46:44.361Z,96506.10
2018-12-17T11:49:14.715Z,96500.02
2018-12-17T11:51:45.173Z,96508.74
2018-12-17T11:54:15.523Z,96506.75
2018-12-17T11:56:55.312Z,96507.34
2018-12-17T11:59:25.360Z,96514.77
2018-12-17T12:01:55.736Z,96510.63
2018-12-17T12:04:25.761Z,96516.23
2018-12-17T12:06:55.817Z,96516.06
2018-12-17T12:09:26.092Z,96514.44
2018-12-17T12:11:56.389Z,96518.84
2018-12-17T12:14:26.633Z,96519.61
2018-12-17T12:16:56.962Z,96522.27
2018-12-17T12:19:27.049Z,96519.30
2018-12-17T12:21:57.179Z,96518.41
2018-12-17T12:24:27.305Z,96516.77
2018-12-17T12:26:57.318Z,96522.32
2018-12-17T12:29:27.396Z,96523.42
2018-12-17T12:31:57.521Z,96518.80
2018-12-17T12:34:27.557Z,96525.13
2018-12-17T12:36:57.593Z,96531.06
2018-12-17T12:39:27.813Z,96536.95
2018-12-17T12:41:57.830Z,96538.09
2018-12-17T12:44:27.857Z,96542.44
2018-12-17T12:46:58.002Z,96542.92
2018-12-17T12:49:28.222Z,96547.06
2018-12-17T12:51:58.331Z,96546.17
2018-12-17T12:54:28.866Z,96550.79
2018-12-17T12:56:59.948Z,96560.98
2018-12-17T12:59:31.088Z,96560.24
2018-12-17T13:02:02.032Z,96555.84
2018-12-17T13:04:33.347Z,96569.02
2018-12-17T13:07:03.526Z,96568.25
2018-12-17T13:09:33.597Z,96567.42
2018-12-17T13:12:03.666Z,96574.73
2018-12-17T13:14:34.281Z,96580.65
2018-12-17T13:17:09.647Z,96580.45
2018-12-17T13:19:41.076Z,96587.73
2018-12-17T13:22:11.129Z,96586.05
2018-12-17T13:24:41.342Z,96593.40
2018-12-17T13:27:11.576Z,96601.41
2018-12-17T13:29:41.713Z,96604.72
2018-12-17T13:32:11.811Z,96611.40
2018-12-17T13:34:42.973Z,96616.08
2018-12-17T13:37:13.022Z,96622.94
2018-12-17T13:39:43.270Z,96626.72
2018-12-17T13:42:13.308Z,96637.14
2018-12-17T13:44:43.540Z,96637.81
2018-12-17T13:47:13.669Z,96644.34
2018-12-17T13:49:43.932Z,96647.30
2018-12-17T13:52:19.397Z,96649.34
2018-12-17T13:54:49.679Z,96655.42
2018-12-17T13:57:20.616Z,96655.83
2018-12-17T13:59:50.776Z,96660.04
2018-12-17T14:02:21.083Z,96665.69
2018-12-17T14:04:51.099Z,96665.15
2018-12-17T14:07:21.300Z,96670.57
2018-12-17T14:09:57.016Z,96670.73
2018-12-17T14:12:27.261Z,96678.77
2018-12-17T14:14:57.288Z,96680.95
2018-12-17T14:17:32.637Z,96684.84
2018-12-17T14:20:07.863Z,96685.70
2018-12-17T14:22:38.481Z,96697.44
2018-12-17T14:25:09.089Z,96692.71
2018-12-17T14:27:39.572Z,96697.35
2018-12-17T14:30:10.390Z,96702.67
2018-12-17T14:32:40.498Z,96697.85
2018-12-17T14:35:10.557Z,96704.41
2018-12-17T14:37:45.721Z,96703.33
2018-12-17T14:40:16.037Z,96712.77
2018-12-17T14:42:46.013Z,96710.42
2018-12-17T14:45:16.149Z,96712.14
2018-12-17T14:47:46.201Z,96724.20
2018-12-17T14:50:16.333Z,96731.50
2018-12-17T14:52:47.180Z,96733.24
2018-12-17T14:55:17.213Z,96737.71
2018-12-17T14:57:47.557Z,96735.29
2018-12-17T15:00:17.663Z,96746.06
2018-12-17T15:02:48.681Z,96742.70
2018-12-17T15:05:20.065Z,96745.41
2018-12-17T15:07:50.137Z,96741.34
2018-12-17T15:10:20.161Z,96746.44
2018-12-17T15:12:50.658Z,96748.45
2018-12-17T15:15:20.754Z,96761.00
2018-12-17T15:17:50.972Z,96754.28
2018-12-17T15:20:21.193Z,96758.55
2018-12-17T15:22:52.597Z,96766.63
2018-12-17T15:25:23.038Z,96756.13
2018-12-17T15:27:53.147Z,96758.64
2018-12-17T15:30:23.519Z,96763.74
2018-12-17T15:32:53.525Z,96765.05
2018-12-17T15:35:23.565Z,96776.78
2018-12-17T15:37:53.560Z,96776.41
2018-12-17T15:40:23.953Z,96776.03
2018-12-17T15:42:53.980Z,96782.45
2018-12-17T15:45:24.926Z,96787.50
2018-12-17T15:47:55.131Z,96789.59
2018-12-17T15:50:25.181Z,96798.90
2018-12-17T15:52:55.344Z,96798.42
2018-12-17T15:55:26.496Z,96805.89
2018-12-17T15:57:56.585Z,96813.56
2018-12-17T16:00:26.606Z,96821.34
2018-12-17T16:02:56.892Z,96825.98
2018-12-17T16:05:27.878Z,96821.92
2018-12-17T16:07:58.104Z,96825.75
2018-12-17T16:10:28.448Z,96830.16
2018-12-17T16:12:58.841Z,96835.45
2018-12-17T16:15:29.257Z,96838.81
2018-12-17T16:17:59.754Z,96837.04
2018-12-17T16:20:30.449Z,96827.78
2018-12-17T16:23:00.745Z,96835.15
2018-12-17T16:25:34.241Z,96846.92
2018-12-17T16:28:05.676Z,96844.92
2018-12-17T16:30:35.897Z,96858.19
2018-12-17T16:33:06.332Z,96848.80
2018-12-17T16:35:36.401Z,96861.45
2018-12-17T16:38:06.502Z,96856.37
2018-12-17T16:40:37.902Z,96857.95
2018-12-17T16:43:07.996Z,96858.38
2018-12-17T16:45:38.178Z,96857.48
2018-12-17T16:48:08.286Z,96866.64
2018-12-17T16:50:38.346Z,96879.25
2018-12-17T16:53:08.666Z,96874.20
2018-12-17T16:55:39.548Z,96874.67
2018-12-17T16:58:09.796Z,96888.14
2018-12-17T17:00:39.797Z,96882.72
2018-12-17T17:03:11.086Z,96889.54
2018-12-17T17:05:41.908Z,96898.73
2018-12-17T17:08:12.062Z,96896.69
2018-12-17T17:10:42.100Z,96893.37
2018-12-17T17:13:12.553Z,96905.60
2018-12-17T17:15:42.724Z,96904.34
2018-12-17T17:18:12.801Z,96911.92
2018-12-17T17:20:43.081Z,96910.38
2018-12-17T17:23:13.140Z,96910.70
2018-12-17T17:25:43.262Z,96908.22
2018-12-17T17:28:13.289Z,96915.79
2018-12-17T17:30:43.410Z,96923.03
2018-12-17T17:33:13.524Z,96924.77
2018-12-17T17:35:43.653Z,96925.52
2018-12-17T17:38:13.677Z,96935.65
2018-12-17T17:40:43.744Z,96938.34
2018-12-17T17:43:13.940Z,96940.08
2018-12-17T17:45:44.090Z,96935.08
2018-12-17T17:48:14.127Z,96937.19
2018-12-17T17:50:44.271Z,96936.81
2018-12-17T17:53:14.392Z,96946.48
2018-12-17T17:55:44.410Z,96940.22
2018-12-17T17:58:15.520Z,96948.30
2018-12-17T18:00:45.640Z,96953.95
2018-12-17T18:03:16.001Z,96954.46
2018-12-17T18:05:46.052Z,96957.36
2018-12-17T18:08:16.220Z,96959.22
2018-12-17T18:10:46.429Z,96974.24
2018-12-17T18:13:16.490Z,96975.55
2018-12-17T18:15:46.530Z,96968.31
2018-12-17T18:18:16.562Z,96975.03
2018-12-17T18:20:47.036Z,96967.43
2018-12-17T18:23:17.104Z,96974.07
2018-12-17T18:25:47.280Z,96971.23
2018-12-17T18:28:17.542Z,96974.59
2018-12-17T18:30:47.714Z,96975.53
2018-12-17T18:33:17.852Z,96984.48
2018-12-17T18:35:47.949Z,96981.97
2018-12-17T18:38:17.978Z,96990.50
2018-12-17T18:40:48.025Z,96982.98
2018-12-17T18:43:18.123Z,96978.35
2018-12-17T18:45:48.360Z,96970.70
2018-12-17T18:48:18.583Z,96967.91
2018-12-17T18:50:48.690Z,96981.73
2018-12-17T18:53:18.809Z,96983.61
2018-12-17T18:55:48.881Z,96990.50
2018-12-17T18:58:18.924Z,96992.73
2018-12-17T19:00:49.207Z,96993.95
2018-12-17T19:03:20.131Z,96999.84
2018-12-17T19:05:51.701Z,97000.84
2018-12-17T19:08:21.889Z,97003.70
2018-12-17T19:10:56.236Z,97007.48
2018-12-17T19:13:26.297Z,97006.30
2018-12-17T19:15:56.409Z,97006.34
2018-12-17T19:18:26.478Z,97002.19
2018-12-17T19:20:56.524Z,97004.13
2018-12-17T19:23:26.784Z,97002.31
2018-12-17T19:25:57.094Z,97006.39
2018-12-17T19:28:27.174Z,97004.20
2018-12-17T19:30:57.409Z,97006.00
2018-12-17T19:33:27.662Z,97010.80
2018-12-17T19:35:57.715Z,97010.04
2018-12-17T19:38:27.752Z,97013.87
2018-12-17T19:40:57.861Z,97016.48
2018-12-17T19:43:27.918Z,97016.85
2018-12-17T19:45:57.992Z,97024.42
2018-12-17T19:48:28.126Z,97024.00
2018-12-17T19:50:58.278Z,97025.72
2018-12-17T19:53:28.361Z,97024.92
2018-12-17T19:55:58.591Z,97025.39
2018-12-17T19:58:28.695Z,97000.17
2018-12-17T20:00:58.881Z,97026.82
2018-12-17T20:03:28.999Z,97030.18
2018-12-17T20:05:59.633Z,97023.49
2018-12-17T20:08:30.021Z,97025.22
2018-12-17T20:11:00.125Z,97029.04
2018-12-17T20:13:30.179Z,97021.90
2018-12-17T20:16:00.735Z,97019.38
2018-12-17T20:18:30.898Z,97018.50
2018-12-17T20:21:01.049Z,97018.12
2018-12-17T20:23:31.173Z,97019.38
2018-12-17T20:26:01.278Z,97018.12
2018-12-17T20:28:31.378Z,97023.16
2018-12-17T20:31:01.484Z,97024.80
2018-12-17T20:33:31.591Z,97028.66
2018-12-17T20:36:01.631Z,97033.70
2018-12-17T20:38:31.645Z,97032.87
2018-12-17T20:41:01.774Z,97032.95
2018-12-17T20:43:32.020Z,97029.36
2018-12-17T20:46:02.060Z,97032.34
2018-12-17T20:48:32.120Z,97035.33
2018-12-17T20:51:02.307Z,97036.71
2018-12-17T20:53:32.328Z,97033.02
2018-12-17T20:56:02.766Z,97029.69
2018-12-17T20:58:32.959Z,97031.75
2018-12-17T21:01:02.997Z,97030.98
2018-12-17T21:03:33.375Z,97032.79
2018-12-17T21:06:03.397Z,97040.53
2018-12-17T21:08:33.503Z,97039.05
2018-12-17T21:11:03.566Z,97035.15
2018-12-17T21:13:33.666Z,97035.72
2018-12-17T21:16:03.740Z,97028.97
2018-12-17T21:18:33.891Z,97025.95
2018-12-17T21:21:04.107Z,97035.53
2018-12-17T21:23:34.284Z,97031.83
2018-12-17T21:26:04.320Z,97030.07
2018-12-17T21:28:34.415Z,97034.81
2018-12-17T21:31:04.565Z,97032.25
2018-12-17T21:33:34.600Z,97034.73
2018-12-17T21:36:05.125Z,97029.91
2018-12-17T21:38:35.171Z,97024.03
2018-12-17T21:41:05.450Z,97022.06
2018-12-17T21:43:36.201Z,97024.84
2018-12-17T21:46:06.470Z,97013.75
2018-12-17T21:48:36.748Z,97014.33
2018-12-17T21:51:06.861Z,97014.59
2018-12-17T21:53:36.905Z,97006.70
2018-12-17T21:56:06.968Z,97011.44
2018-12-17T21:58:37.417Z,97015.94
2018-12-17T22:01:07.460Z,97011.96
2018-12-17T22:03:37.728Z,97009.76
2018-12-17T22:06:07.750Z,97005.09
2018-12-17T22:08:37.760Z,97008.69
2018-12-17T22:11:07.830Z,97001.96
2018-12-17T22:13:37.826Z,97004.48
2018-12-17T22:16:07.837Z,97001.36
2018-12-17T22:18:37.893Z,97013.92
2018-12-17T22:21:07.929Z,97013.70
2018-12-17T22:23:38.053Z,97019.16
2018-12-17T22:26:08.170Z,96971.67
2018-12-17T22:28:38.597Z,97015.75
2018-12-17T22:31:08.824Z,97021.81
2018-12-17T22:33:38.942Z,97022.09
2018-12-17T22:36:09.014Z,97023.48
2018-12-17T22:38:39.041Z,97026.30
2018-12-17T22:41:09.264Z,97025.91
2018-12-17T22:43:39.278Z,97027.65
2018-12-17T22:46:09.373Z,97034.56
2018-12-17T22:48:39.442Z,97035.41
2018-12-17T22:51:09.632Z,97032.78
2018-12-17T22:53:39.635Z,97039.79
2018-12-17T22:56:09.766Z,97038.41
2018-12-17T22:58:42.487Z,97052.70
2018-12-17T23:01:11.852Z,97042.03
2018-12-17T23:03:42.001Z,97051.55
2018-12-17T23:06:12.080Z,97052.30
2018-12-17T23:09:06.170Z,97051.45
2018-12-17T23:11:52.569Z,97048.63
2018-12-17T23:14:33.890Z,97051.43
2018-12-17T23:17:15.409Z,97049.79
2018-12-17T23:19:46.262Z,97053.69
2018-12-17T23:22:16.503Z,97049.84
2018-12-17T23:24:46.632Z,97056.06
2018-12-17T23:27:16.774Z,97060.88
2018-12-17T23:29:47.029Z,97061.50
2018-12-17T23:32:17.080Z,97056.61
2018-12-17T23:34:47.224Z,97055.03
2018-12-17T23:37:17.249Z,97049.81
2018-12-17T23:39:47.357Z,97049.59
2018-12-17T23:42:17.386Z,97055.20
2018-12-17T23:44:47.460Z,97057.40
2018-12-17T23:47:17.529Z,97053.15
2018-12-17T23:49:47.533Z,97057.68
2018-12-17T23:52:17.605Z,97057.20
2018-12-17T23:54:47.774Z,97051.03
2018-12-17T23:57:17.937Z,97047.88
2018-12-17T23:59:47.948Z,97049.41
